Time;durP1;ratioP1;P1;durP2;ratioP2;P2;SDS_P1;SDS_P2;PMS_P1;PMS_P2;Temp;Humidity;BMP_temperature;BMP_pressure;BME280_temperature;BME280_humidity;BME280_pressure;Samples;Min_cycle;Max_cycle;Signal;HPM_P1;HPM_P2
2023/08/31 00:00:06;;;;;;;3.10;2.63;;;;;;;;;;477630;28;1343;-74
2023/08/31 00:00:22;;;;;;;3.78;2.67;;;;;;;;;;477876;28;974;-73
2023/08/31 00:00:41;;;;;;;5.63;2.90;;;;;;;;;;487396;28;1109;-73
2023/08/31 00:01:01;;;;;;;5.35;3.00;;;;;;;;;;487871;28;1022;-73
2023/08/31 00:01:18;;;;;;;4.65;3.03;;;;;;;;;;488460;28;1119;-74
2023/08/31 00:01:33;;;;;;;4.10;2.80;;;;;;;;;;487684;28;1293;-74
2023/08/31 00:01:49;;;;;;;3.90;2.70;;;;;;;;;;483926;28;1089;-73
2023/08/31 00:02:04;;;;;;;4.18;2.60;;;;;;;;;;485256;28;1174;-73
2023/08/31 00:02:20;;;;;;;3.47;2.47;;;;;;;;;;483985;28;1175;-74
2023/08/31 00:02:36;;;;;;;3.38;2.85;;;;;;;;;;484778;28;940;-73
2023/08/31 00:02:51;;;;;;;3.60;2.80;;;;;;;;;;488036;28;1281;-74
2023/08/31 00:03:08;;;;;;;3.50;2.50;;;;;;;;;;487832;28;1209;-74
2023/08/31 00:03:24;;;;;;;4.38;2.70;;;;;;;;;;489025;28;923;-74
2023/08/31 00:03:39;;;;;;;4.97;2.90;;;;;;;;;;489941;28;1258;-74
2023/08/31 00:03:55;;;;;;;5.10;3.00;;;;;;;;;;487976;28;1152;-73
2023/08/31 00:04:14;;;;;;;5.35;3.00;;;;;;;;;;488564;28;927;-74
2023/08/31 00:04:29;;;;;;;4.28;2.88;;;;;;;;;;488366;28;930;-74
2023/08/31 00:04:45;;;;;;;3.60;2.80;;;;;;;;;;486327;28;1298;-73
2023/08/31 00:05:01;;;;;;;4.60;2.80;;;;;;;;;;486888;28;1239;-74
2023/08/31 00:05:16;;;;;;;6.18;2.97;;;;;;;;;;487185;28;1189;-74
2023/08/31 00:05:32;;;;;;;4.93;2.97;;;;;;;;;;485078;28;1229;-73
2023/08/31 00:05:49;;;;;;;4.30;2.88;;;;;;;;;;486704;28;1174;-74
2023/08/31 00:06:07;;;;;;;5.50;3.03;;;;;;;;;;486200;28;1345;-73
2023/08/31 00:06:22;;;;;;;5.22;3.03;;;;;;;;;;485329;28;1199;-73
2023/08/31 00:06:38;;;;;;;4.33;2.90;;;;;;;;;;485116;28;1297;-73
2023/08/31 00:06:53;;;;;;;3.70;2.87;;;;;;;;;;486540;28;1160;-74
2023/08/31 00:07:09;;;;;;;3.20;2.80;;;;;;;;;;487629;28;1184;-73
2023/08/31 00:07:24;;;;;;;3.93;2.90;;;;;;;;;;487367;28;1190;-74
2023/08/31 00:07:41;;;;;;;4.15;2.90;;;;;;;;;;486541;28;1102;-73
2023/08/31 00:07:56;;;;;;;3.78;2.92;;;;;;;;;;485769;28;1240;-74
2023/08/31 00:08:12;;;;;;;3.40;2.77;;;;;;;;;;487256;28;1178;-73
2023/08/31 00:08:27;;;;;;;3.60;2.72;;;;;;;;;;486353;28;1378;-73
2023/08/31 00:08:43;;;;;;;3.73;2.80;;;;;;;;;;485064;28;1422;-73
2023/08/31 00:08:58;;;;;;;4.10;2.78;;;;;;;;;;485945;28;1097;-73
2023/08/31 00:09:14;;;;;;;4.73;2.90;;;;;;;;;;486670;28;1690;-73
2023/08/31 00:09:30;;;;;;;4.65;3.15;;;;;;;;;;486340;28;1266;-73
2023/08/31 00:09:45;;;;;;;4.17;2.93;;;;;;;;;;486652;28;1149;-74
2023/08/31 00:10:06;;;;;;;3.55;2.75;;;;;;;;;;487542;28;1006;-73
2023/08/31 00:10:21;;;;;;;4.70;3.00;;;;;;;;;;486204;28;1087;-74
2023/08/31 00:10:37;;;;;;;4.90;3.00;;;;;;;;;;484666;28;1148;-73
2023/08/31 00:11:00;;;;;;;4.30;3.10;;;;;;;;;;486493;28;965;-73
2023/08/31 00:11:15;;;;;;;4.43;3.10;;;;;;;;;;486082;28;1513;-73
2023/08/31 00:11:31;;;;;;;4.77;3.00;;;;;;;;;;489434;28;1582;-73
2023/08/31 00:11:46;;;;;;;4.00;2.80;;;;;;;;;;487521;28;1270;-73
2023/08/31 00:12:02;;;;;;;4.20;2.90;;;;;;;;;;488026;28;1088;-73
2023/08/31 00:12:18;;;;;;;5.05;3.30;;;;;;;;;;489297;28;1028;-73
2023/08/31 00:12:33;;;;;;;4.88;3.33;;;;;;;;;;488051;28;1049;-73
2023/08/31 00:12:49;;;;;;;4.97;3.20;;;;;;;;;;488449;28;940;-74
2023/08/31 00:13:08;;;;;;;4.30;3.00;;;;;;;;;;487364;28;1104;-73
2023/08/31 00:13:24;;;;;;;5.43;3.10;;;;;;;;;;488523;28;2024;-73
2023/08/31 00:13:39;;;;;;;6.15;3.40;;;;;;;;;;484488;28;1151;-73
2023/08/31 00:13:55;;;;;;;5.18;3.53;;;;;;;;;;486198;28;980;-73
2023/08/31 00:14:11;;;;;;;4.77;3.30;;;;;;;;;;489634;28;1285;-73
2023/08/31 00:14:26;;;;;;;5.57;3.17;;;;;;;;;;490241;28;1065;-73
2023/08/31 00:14:42;;;;;;;5.70;3.28;;;;;;;;;;492028;28;1034;-73
2023/08/31 00:14:57;;;;;;;5.10;3.30;;;;;;;;;;491434;28;1191;-74
2023/08/31 00:15:13;;;;;;;4.73;3.20;;;;;;;;;;491520;28;1299;-73
2023/08/31 00:15:29;;;;;;;4.95;3.30;;;;;;;;;;489280;28;1574;-73
2023/08/31 00:15:46;;;;;;;4.43;3.35;;;;;;;;;;486578;28;1237;-74
2023/08/31 00:16:02;;;;;;;4.10;3.30;;;;;;;;;;488825;28;1096;-73
2023/08/31 00:16:23;;;;;;;4.32;3.30;;;;;;;;;;490414;28;990;-74
2023/08/31 00:16:39;;;;;;;4.57;3.33;;;;;;;;;;488886;28;1155;-73
2023/08/31 00:16:57;;;;;;;5.32;3.40;;;;;;;;;;489373;28;1250;-73
2023/08/31 00:17:14;;;;;;;5.38;3.50;;;;;;;;;;481241;28;1380;-72
2023/08/31 00:17:30;;;;;;;5.53;3.50;;;;;;;;;;477996;28;1260;-74
2023/08/31 00:17:45;;;;;;;5.55;3.20;;;;;;;;;;479295;28;1032;-74
2023/08/31 00:18:03;;;;;;;4.73;3.23;;;;;;;;;;481000;28;1266;-73
2023/08/31 00:18:20;;;;;;;5.30;3.60;;;;;;;;;;484294;28;1249;-73
2023/08/31 00:18:36;;;;;;;5.63;3.75;;;;;;;;;;483586;28;1296;-74
2023/08/31 00:18:51;;;;;;;4.70;3.50;;;;;;;;;;484490;28;1148;-73
2023/08/31 00:19:07;;;;;;;4.60;3.30;;;;;;;;;;485873;28;1341;-73
2023/08/31 00:19:22;;;;;;;4.20;3.30;;;;;;;;;;487756;28;1269;-73
2023/08/31 00:19:38;;;;;;;3.80;3.40;;;;;;;;;;487084;28;1169;-73
2023/08/31 00:19:54;;;;;;;4.45;3.60;;;;;;;;;;486775;28;1108;-73
2023/08/31 00:20:14;;;;;;;4.82;3.47;;;;;;;;;;485945;28;1069;-73
2023/08/31 00:20:33;;;;;;;5.70;3.53;;;;;;;;;;486541;28;1236;-73
2023/08/31 00:20:48;;;;;;;4.40;3.38;;;;;;;;;;486616;28;1397;-73
2023/08/31 00:21:04;;;;;;;4.67;3.40;;;;;;;;;;488168;28;1263;-74
2023/08/31 00:21:21;;;;;;;4.40;3.40;;;;;;;;;;488540;28;1261;-73
2023/08/31 00:21:36;;;;;;;4.80;3.40;;;;;;;;;;488747;28;1227;-74
2023/08/31 00:21:52;;;;;;;5.97;3.60;;;;;;;;;;489493;28;1085;-73
2023/08/31 00:22:07;;;;;;;5.20;3.33;;;;;;;;;;488259;28;1329;-73
2023/08/31 00:22:23;;;;;;;5.07;3.53;;;;;;;;;;489787;28;1175;-73
2023/08/31 00:22:39;;;;;;;4.93;3.70;;;;;;;;;;488239;28;1144;-73
2023/08/31 00:22:54;;;;;;;4.57;3.50;;;;;;;;;;489827;28;1652;-73
2023/08/31 00:23:10;;;;;;;4.67;3.50;;;;;;;;;;491414;28;922;-73
2023/08/31 00:23:26;;;;;;;4.35;3.47;;;;;;;;;;490763;28;915;-73
2023/08/31 00:23:41;;;;;;;4.47;3.60;;;;;;;;;;485863;28;1091;-74
2023/08/31 00:23:57;;;;;;;4.60;3.70;;;;;;;;;;486077;28;937;-71
2023/08/31 00:24:12;;;;;;;4.85;3.70;;;;;;;;;;490305;28;1123;-70
2023/08/31 00:24:31;;;;;;;4.57;3.60;;;;;;;;;;486965;28;1100;-70
2023/08/31 00:24:47;;;;;;;4.28;3.70;;;;;;;;;;485598;28;1314;-70
2023/08/31 00:25:02;;;;;;;4.28;3.65;;;;;;;;;;490488;28;1082;-70
2023/08/31 00:25:18;;;;;;;4.83;3.53;;;;;;;;;;480779;28;1259;-70
2023/08/31 00:25:33;;;;;;;5.45;3.50;;;;;;;;;;482027;28;1026;-70
2023/08/31 00:25:50;;;;;;;4.87;3.50;;;;;;;;;;479881;28;1443;-70
2023/08/31 00:26:06;;;;;;;4.25;3.35;;;;;;;;;;478116;28;1263;-70
2023/08/31 00:26:22;;;;;;;4.68;3.30;;;;;;;;;;478333;28;1029;-71
2023/08/31 00:26:43;;;;;;;5.13;3.42;;;;;;;;;;479174;28;1211;-70
2023/08/31 00:26:59;;;;;;;4.95;3.55;;;;;;;;;;479700;28;983;-71
2023/08/31 00:27:15;;;;;;;5.40;3.72;;;;;;;;;;487030;28;1290;-71
2023/08/31 00:27:30;;;;;;;5.30;3.63;;;;;;;;;;489358;28;1402;-70
2023/08/31 00:27:48;;;;;;;4.50;3.50;;;;;;;;;;489007;28;1198;-70
2023/08/31 00:28:04;;;;;;;3.90;3.50;;;;;;;;;;489848;28;1198;-70
2023/08/31 00:28:20;;;;;;;4.25;3.50;;;;;;;;;;489901;28;1146;-70
2023/08/31 00:28:36;;;;;;;4.75;3.45;;;;;;;;;;488931;28;1162;-71
2023/08/31 00:28:52;;;;;;;5.45;3.60;;;;;;;;;;488577;28;1365;-70
2023/08/31 00:29:10;;;;;;;6.13;3.78;;;;;;;;;;486306;28;1268;-70
2023/08/31 00:29:25;;;;;;;5.50;3.80;;;;;;;;;;487404;28;986;-71
2023/08/31 00:29:41;;;;;;;4.53;3.63;;;;;;;;;;486311;28;1266;-70
2023/08/31 00:29:57;;;;;;;4.80;3.50;;;;;;;;;;486206;28;1002;-70
2023/08/31 00:30:14;;;;;;;5.53;3.70;;;;;;;;;;485339;28;1063;-70
2023/08/31 00:30:29;;;;;;;5.50;3.90;;;;;;;;;;483246;28;1151;-71
2023/08/31 00:30:45;;;;;;;5.00;3.90;;;;;;;;;;483926;28;1191;-71
2023/08/31 00:31:03;;;;;;;4.53;3.70;;;;;;;;;;485043;28;1273;-71
2023/08/31 00:31:19;;;;;;;5.20;3.60;;;;;;;;;;486248;28;1174;-71
2023/08/31 00:31:34;;;;;;;6.45;4.00;;;;;;;;;;486543;28;1365;-71
2023/08/31 00:31:51;;;;;;;5.83;3.87;;;;;;;;;;487679;28;1280;-70
2023/08/31 00:32:06;;;;;;;5.93;3.67;;;;;;;;;;487181;28;1092;-70
2023/08/31 00:32:23;;;;;;;5.63;3.90;;;;;;;;;;486359;28;1114;-71
2023/08/31 00:32:39;;;;;;;6.03;4.00;;;;;;;;;;487265;28;990;-71
2023/08/31 00:32:55;;;;;;;6.53;4.03;;;;;;;;;;488853;28;937;-71
2023/08/31 00:33:15;;;;;;;5.65;4.18;;;;;;;;;;489303;28;929;-70
2023/08/31 00:33:30;;;;;;;5.22;4.20;;;;;;;;;;482228;28;1152;-70
2023/08/31 00:33:46;;;;;;;5.33;4.20;;;;;;;;;;486071;28;1102;-70
2023/08/31 00:34:03;;;;;;;5.68;4.20;;;;;;;;;;485248;28;1401;-71
2023/08/31 00:34:19;;;;;;;5.80;4.13;;;;;;;;;;484697;28;963;-71
2023/08/31 00:34:35;;;;;;;5.43;3.85;;;;;;;;;;488750;28;1283;-71
2023/08/31 00:34:50;;;;;;;4.90;3.70;;;;;;;;;;485039;28;1299;-71
2023/08/31 00:35:08;;;;;;;4.40;3.72;;;;;;;;;;485677;28;978;-70
2023/08/31 00:35:24;;;;;;;4.93;3.83;;;;;;;;;;486269;28;1026;-70
2023/08/31 00:35:45;;;;;;;5.00;3.90;;;;;;;;;;487094;28;906;-70
2023/08/31 00:36:03;;;;;;;5.20;3.88;;;;;;;;;;487804;28;1021;-70
2023/08/31 00:36:19;;;;;;;5.68;4.03;;;;;;;;;;488109;28;1096;-70
2023/08/31 00:36:34;;;;;;;4.87;3.70;;;;;;;;;;488088;28;1216;-70
2023/08/31 00:36:50;;;;;;;4.83;3.50;;;;;;;;;;486010;28;1662;-71
2023/08/31 00:37:05;;;;;;;4.85;3.60;;;;;;;;;;486346;28;1129;-70
2023/08/31 00:37:21;;;;;;;4.43;3.73;;;;;;;;;;484568;28;1120;-70
2023/08/31 00:37:37;;;;;;;5.05;3.78;;;;;;;;;;483573;28;1080;-70
2023/08/31 00:37:56;;;;;;;5.30;3.80;;;;;;;;;;483130;28;1118;-70
2023/08/31 00:38:13;;;;;;;7.20;3.78;;;;;;;;;;485340;28;1231;-70
2023/08/31 00:38:32;;;;;;;7.57;3.70;;;;;;;;;;484442;28;1380;-70
2023/08/31 00:38:49;;;;;;;5.70;3.80;;;;;;;;;;481150;28;1689;-71
2023/08/31 00:39:10;;;;;;;6.07;3.97;;;;;;;;;;481872;28;1357;-70
2023/08/31 00:39:27;;;;;;;4.95;3.75;;;;;;;;;;485743;28;1367;-71
2023/08/31 00:39:43;;;;;;;4.88;3.63;;;;;;;;;;485169;28;1026;-71
2023/08/31 00:39:59;;;;;;;4.78;3.78;;;;;;;;;;485471;28;1205;-70
2023/08/31 00:40:16;;;;;;;4.85;3.80;;;;;;;;;;490309;28;1381;-71
2023/08/31 00:40:33;;;;;;;4.53;3.70;;;;;;;;;;486944;28;1229;-70
2023/08/31 00:40:48;;;;;;;4.07;3.47;;;;;;;;;;488509;28;1398;-71
2023/08/31 00:41:03;;;;;;;4.77;3.73;;;;;;;;;;488722;28;1319;-70
2023/08/31 00:41:19;;;;;;;5.32;3.90;;;;;;;;;;486852;28;1337;-71
2023/08/31 00:41:35;;;;;;;4.95;3.67;;;;;;;;;;487877;28;1152;-71
2023/08/31 00:41:52;;;;;;;4.73;3.80;;;;;;;;;;486337;28;1327;-70
2023/08/31 00:42:08;;;;;;;4.43;3.90;;;;;;;;;;483565;28;1311;-70
2023/08/31 00:42:24;;;;;;;4.83;3.77;;;;;;;;;;483029;28;1064;-70
2023/08/31 00:42:40;;;;;;;4.80;3.67;;;;;;;;;;486516;28;1362;-69
2023/08/31 00:42:56;;;;;;;5.63;3.57;;;;;;;;;;486595;28;957;-71
2023/08/31 00:43:15;;;;;;;5.50;3.55;;;;;;;;;;483459;28;1100;-70
2023/08/31 00:43:31;;;;;;;5.78;3.70;;;;;;;;;;479016;28;1195;-70
2023/08/31 00:43:47;;;;;;;6.47;3.55;;;;;;;;;;479412;28;1179;-70
2023/08/31 00:44:04;;;;;;;6.43;3.70;;;;;;;;;;483897;28;1166;-70
2023/08/31 00:44:20;;;;;;;4.95;3.53;;;;;;;;;;490036;28;1094;-70
2023/08/31 00:44:35;;;;;;;5.20;3.63;;;;;;;;;;486514;28;1077;-70
2023/08/31 00:44:51;;;;;;;5.13;3.80;;;;;;;;;;484291;28;1111;-70
2023/08/31 00:45:07;;;;;;;4.78;3.83;;;;;;;;;;486015;28;1080;-70
2023/08/31 00:45:23;;;;;;;4.75;3.78;;;;;;;;;;483961;28;1245;-70
2023/08/31 00:45:40;;;;;;;4.60;3.75;;;;;;;;;;483785;28;979;-70
2023/08/31 00:45:58;;;;;;;4.93;3.90;;;;;;;;;;484152;28;951;-70
2023/08/31 00:46:14;;;;;;;5.70;3.97;;;;;;;;;;486206;28;894;-70
2023/08/31 00:46:31;;;;;;;5.72;4.00;;;;;;;;;;488445;28;1336;-70
2023/08/31 00:46:46;;;;;;;5.25;3.97;;;;;;;;;;488750;28;1352;-70
2023/08/31 00:47:04;;;;;;;4.80;3.83;;;;;;;;;;488342;28;1138;-70
2023/08/31 00:47:20;;;;;;;5.43;3.90;;;;;;;;;;485271;28;1185;-71
2023/08/31 00:47:35;;;;;;;5.50;4.00;;;;;;;;;;485157;28;1126;-70
2023/08/31 00:47:51;;;;;;;4.40;3.90;;;;;;;;;;480135;28;1171;-70
2023/08/31 00:48:07;;;;;;;4.10;3.70;;;;;;;;;;479555;28;1227;-70
2023/08/31 00:48:22;;;;;;;5.35;3.72;;;;;;;;;;480008;28;1063;-71
2023/08/31 00:48:38;;;;;;;5.32;3.72;;;;;;;;;;480695;28;1347;-70
2023/08/31 00:48:54;;;;;;;4.23;3.60;;;;;;;;;;480445;28;1138;-70
2023/08/31 00:49:09;;;;;;;4.72;3.65;;;;;;;;;;479327;28;1408;-70
2023/08/31 00:49:25;;;;;;;4.57;3.80;;;;;;;;;;479341;28;1062;-70
2023/08/31 00:49:41;;;;;;;5.80;3.80;;;;;;;;;;480262;28;1046;-70
2023/08/31 00:49:56;;;;;;;6.90;3.80;;;;;;;;;;487585;28;1022;-70
2023/08/31 00:50:12;;;;;;;5.38;3.80;;;;;;;;;;488918;28;1198;-70
2023/08/31 00:50:27;;;;;;;5.33;3.80;;;;;;;;;;485009;28;1209;-70
2023/08/31 00:50:46;;;;;;;5.90;3.90;;;;;;;;;;481438;28;1213;-70
2023/08/31 00:51:02;;;;;;;4.80;3.72;;;;;;;;;;483548;28;1579;-70
2023/08/31 00:51:18;;;;;;;5.07;3.60;;;;;;;;;;485027;28;1079;-70
2023/08/31 00:51:33;;;;;;;4.50;3.70;;;;;;;;;;484936;28;1107;-71
2023/08/31 00:51:50;;;;;;;5.57;3.90;;;;;;;;;;484484;28;1081;-70
2023/08/31 00:52:06;;;;;;;4.90;3.78;;;;;;;;;;486192;28;908;-70
2023/08/31 00:52:22;;;;;;;3.97;3.60;;;;;;;;;;483736;28;1317;-71
2023/08/31 00:52:37;;;;;;;4.70;3.80;;;;;;;;;;482119;28;1040;-70
2023/08/31 00:52:53;;;;;;;4.75;3.80;;;;;;;;;;481793;28;1301;-70
2023/08/31 00:53:08;;;;;;;4.17;3.53;;;;;;;;;;481314;28;1346;-70
2023/08/31 00:53:25;;;;;;;4.53;3.60;;;;;;;;;;484199;28;2029;-70
2023/08/31 00:53:41;;;;;;;4.68;3.67;;;;;;;;;;487051;28;1097;-71
2023/08/31 00:53:58;;;;;;;4.53;3.60;;;;;;;;;;485834;28;1322;-70
2023/08/31 00:54:16;;;;;;;4.43;3.42;;;;;;;;;;488603;28;1001;-70
2023/08/31 00:54:32;;;;;;;5.63;3.80;;;;;;;;;;482887;28;1299;-70
2023/08/31 00:54:51;;;;;;;6.57;4.00;;;;;;;;;;483999;28;1093;-71
2023/08/31 00:55:08;;;;;;;6.90;3.90;;;;;;;;;;488163;28;2070;-70
2023/08/31 00:55:24;;;;;;;5.10;3.80;;;;;;;;;;487048;28;1095;-70
2023/08/31 00:55:42;;;;;;;4.70;3.70;;;;;;;;;;485295;28;1156;-70
2023/08/31 00:55:58;;;;;;;6.82;3.72;;;;;;;;;;479161;28;1184;-70
2023/08/31 00:56:13;;;;;;;6.93;3.83;;;;;;;;;;479069;28;1125;-71
2023/08/31 00:56:29;;;;;;;5.40;3.83;;;;;;;;;;478157;28;1206;-70
2023/08/31 00:56:45;;;;;;;4.93;3.90;;;;;;;;;;476813;28;1159;-70
2023/08/31 00:57:00;;;;;;;5.05;3.90;;;;;;;;;;478905;28;1077;-70
2023/08/31 00:57:15;;;;;;;5.32;4.00;;;;;;;;;;479746;28;1034;-70
2023/08/31 00:57:31;;;;;;;5.77;4.10;;;;;;;;;;475767;28;1156;-71
2023/08/31 00:57:46;;;;;;;6.13;4.10;;;;;;;;;;480461;28;1152;-70
2023/08/31 00:58:02;;;;;;;7.10;4.10;;;;;;;;;;482421;28;1129;-70
2023/08/31 00:58:17;;;;;;;6.30;3.90;;;;;;;;;;483418;28;1021;-70
2023/08/31 00:58:35;;;;;;;5.50;3.97;;;;;;;;;;484996;28;1295;-71
2023/08/31 00:58:50;;;;;;;5.43;4.10;;;;;;;;;;488259;28;1156;-70
2023/08/31 00:59:05;;;;;;;4.60;3.80;;;;;;;;;;485656;28;1270;-70
2023/08/31 00:59:21;;;;;;;4.90;3.85;;;;;;;;;;485130;28;1272;-70
2023/08/31 00:59:36;;;;;;;6.43;4.23;;;;;;;;;;486887;28;1141;-71
2023/08/31 00:59:55;;;;;;;6.60;4.30;;;;;;;;;;484861;28;1140;-70
2023/08/31 01:00:12;;;;;;;5.60;3.90;;;;;;;;;;494089;28;973;-70
2023/08/31 01:00:40;;;;;;;6.63;4.10;;;;;;;;;;485101;28;1178;-73
2023/08/31 01:01:15;;;;;;;4.43;3.67;;;;;;;;;;486613;28;1055;-73
2023/08/31 01:02:13;;;;;;;5.63;4.05;;;;;;;;;;472497;28;2371;-65
2023/08/31 01:02:44;;;;;;;6.10;4.00;;;;;;;;;;475003;28;1006;-65
2023/08/31 01:03:11;;;;;;;5.90;4.03;;;;;;;;;;468295;28;1609;-73
2023/08/31 01:03:48;;;;;;;5.35;3.95;;;;;;;;;;473636;28;981;-73
2023/08/31 01:04:25;;;;;;;4.13;3.55;;;;;;;;;;475816;28;935;-73
2023/08/31 01:04:59;;;;;;;5.85;4.10;;;;;;;;;;481646;28;1100;-75
2023/08/31 01:05:38;;;;;;;6.60;4.30;;;;;;;;;;478282;28;1058;-75
2023/08/31 01:06:15;;;;;;;5.97;4.07;;;;;;;;;;477879;28;975;-75
2023/08/31 01:06:51;;;;;;;4.95;3.95;;;;;;;;;;465752;28;1056;-75
2023/08/31 01:07:26;;;;;;;5.97;4.07;;;;;;;;;;472510;28;895;-75
2023/08/31 01:07:55;;;;;;;6.05;4.47;;;;;;;;;;464167;28;1318;-75
2023/08/31 01:08:46;;;;;;;5.63;4.00;;;;;;;;;;464957;28;993;-75
2023/08/31 01:09:29;;;;;;;5.20;4.03;;;;;;;;;;469479;28;1910;-75
2023/08/31 01:10:11;;;;;;;4.85;4.00;;;;;;;;;;471151;28;968;-75
2023/08/31 01:10:40;;;;;;;5.90;4.22;;;;;;;;;;462898;28;1282;-75
2023/08/31 01:11:19;;;;;;;5.90;4.18;;;;;;;;;;471648;28;935;-75
2023/08/31 01:11:41;;;;;;;5.20;3.95;;;;;;;;;;472193;28;908;-75
2023/08/31 01:12:09;;;;;;;5.18;3.92;;;;;;;;;;469153;28;1133;-75
2023/08/31 01:12:56;;;;;;;5.63;3.92;;;;;;;;;;472364;28;1090;-75
2023/08/31 01:13:14;;;;;;;6.28;4.30;;;;;;;;;;467209;28;1402;-75
2023/08/31 01:13:32;;;;;;;7.20;4.43;;;;;;;;;;517160;28;1207;-74
2023/08/31 01:13:52;;;;;;;6.22;4.25;;;;;;;;;;520829;28;1214;-74
2023/08/31 01:14:20;;;;;;;4.45;3.80;;;;;;;;;;521626;28;848;-75
2023/08/31 01:14:47;;;;;;;6.10;3.97;;;;;;;;;;520734;28;2206;-74
2023/08/31 01:15:07;;;;;;;5.93;3.90;;;;;;;;;;521843;28;1039;-74
2023/08/31 01:15:25;;;;;;;5.28;4.00;;;;;;;;;;521931;28;966;-74
2023/08/31 01:15:50;;;;;;;5.35;4.07;;;;;;;;;;519664;28;1491;-74
2023/08/31 01:16:07;;;;;;;4.82;4.03;;;;;;;;;;519922;28;980;-74
2023/08/31 01:16:24;;;;;;;4.07;3.67;;;;;;;;;;520042;28;895;-74
2023/08/31 01:16:43;;;;;;;4.00;3.50;;;;;;;;;;522007;28;878;-75
2023/08/31 01:17:00;;;;;;;4.07;3.60;;;;;;;;;;522026;28;1001;-74
2023/08/31 01:17:17;;;;;;;4.50;3.47;;;;;;;;;;521879;28;1034;-75
2023/08/31 01:17:36;;;;;;;5.45;3.90;;;;;;;;;;518619;28;864;-74
2023/08/31 01:17:54;;;;;;;5.35;3.97;;;;;;;;;;521851;28;1264;-74
2023/08/31 01:18:12;;;;;;;4.65;3.80;;;;;;;;;;519800;28;1391;-74
2023/08/31 01:18:29;;;;;;;6.47;3.83;;;;;;;;;;519339;28;1157;-75
2023/08/31 01:18:48;;;;;;;8.30;4.15;;;;;;;;;;519686;28;2119;-74
2023/08/31 01:19:11;;;;;;;7.07;4.20;;;;;;;;;;518046;28;1135;-74
2023/08/31 01:19:44;;;;;;;6.82;4.40;;;;;;;;;;519631;28;1171;-74
2023/08/31 01:20:00;;;;;;;5.18;3.90;;;;;;;;;;518010;28;1194;-75
2023/08/31 01:20:23;;;;;;;6.13;3.92;;;;;;;;;;519873;28;915;-75
2023/08/31 01:20:44;;;;;;;5.00;4.10;;;;;;;;;;516134;28;1093;-75
2023/08/31 01:21:13;;;;;;;5.07;4.10;;;;;;;;;;512065;29;931;-74
2023/08/31 01:21:37;;;;;;;4.90;4.10;;;;;;;;;;512057;29;947;-75
2023/08/31 01:21:57;;;;;;;5.03;3.90;;;;;;;;;;520305;28;908;-74
2023/08/31 01:22:51;;;;;;;5.13;4.00;;;;;;;;;;520277;28;1051;-74
2023/08/31 01:23:42;;;;;;;5.95;4.10;;;;;;;;;;511860;28;1528;-75
2023/08/31 01:23:58;;;;;;;5.40;3.92;;;;;;;;;;520311;28;955;-74
2023/08/31 01:24:13;;;;;;;5.93;3.92;;;;;;;;;;520310;28;888;-75
2023/08/31 01:24:30;;;;;;;6.00;4.10;;;;;;;;;;520231;28;900;-75
2023/08/31 01:24:45;;;;;;;5.53;4.13;;;;;;;;;;520216;28;923;-74
2023/08/31 01:25:04;;;;;;;5.88;4.03;;;;;;;;;;516081;28;848;-75
2023/08/31 01:25:20;;;;;;;5.78;4.07;;;;;;;;;;511993;29;852;-74
2023/08/31 01:25:36;;;;;;;6.13;3.97;;;;;;;;;;512153;29;789;-74
2023/08/31 01:25:52;;;;;;;5.90;4.00;;;;;;;;;;512100;29;892;-75
2023/08/31 01:26:07;;;;;;;4.87;4.00;;;;;;;;;;512192;28;1354;-74
2023/08/31 01:26:23;;;;;;;5.35;4.03;;;;;;;;;;512047;29;923;-74
2023/08/31 01:26:40;;;;;;;6.32;3.97;;;;;;;;;;512110;29;911;-74
2023/08/31 01:26:56;;;;;;;6.32;4.05;;;;;;;;;;511773;29;948;-74
2023/08/31 01:27:12;;;;;;;5.82;4.20;;;;;;;;;;511980;29;951;-74
2023/08/31 01:27:27;;;;;;;5.00;3.95;;;;;;;;;;511904;29;907;-75
2023/08/31 01:27:43;;;;;;;5.03;3.80;;;;;;;;;;507757;29;1210;-74
2023/08/31 01:27:59;;;;;;;6.05;3.90;;;;;;;;;;507608;29;1265;-74
2023/08/31 01:28:15;;;;;;;5.80;4.05;;;;;;;;;;507818;29;1164;-74
2023/08/31 01:28:31;;;;;;;5.72;4.18;;;;;;;;;;507488;28;1357;-75
2023/08/31 01:28:47;;;;;;;5.93;4.10;;;;;;;;;;511265;28;1463;-74
2023/08/31 01:29:03;;;;;;;5.03;3.80;;;;;;;;;;518215;28;1214;-74
2023/08/31 01:29:19;;;;;;;5.30;4.20;;;;;;;;;;518300;28;990;-74
2023/08/31 01:29:34;;;;;;;5.33;4.27;;;;;;;;;;519642;28;927;-75
2023/08/31 01:29:50;;;;;;;4.00;3.60;;;;;;;;;;522444;28;883;-74
2023/08/31 01:30:06;;;;;;;5.00;3.60;;;;;;;;;;522216;28;1458;-74
2023/08/31 01:30:22;;;;;;;5.97;4.00;;;;;;;;;;521728;28;1167;-75
2023/08/31 01:30:37;;;;;;;6.77;4.20;;;;;;;;;;518957;28;1441;-74
2023/08/31 01:30:52;;;;;;;6.90;4.20;;;;;;;;;;520029;28;1352;-74
2023/08/31 01:31:09;;;;;;;5.20;4.00;;;;;;;;;;520231;28;1353;-74
2023/08/31 01:31:24;;;;;;;4.85;4.00;;;;;;;;;;520264;28;868;-74
2023/08/31 01:31:43;;;;;;;4.90;3.97;;;;;;;;;;520341;28;891;-74
2023/08/31 01:31:58;;;;;;;6.75;4.20;;;;;;;;;;520342;28;880;-74
2023/08/31 01:32:14;;;;;;;6.80;4.23;;;;;;;;;;520310;28;828;-75
2023/08/31 01:32:30;;;;;;;5.05;4.25;;;;;;;;;;520370;28;793;-74
2023/08/31 01:32:46;;;;;;;4.68;3.97;;;;;;;;;;520313;28;953;-74
2023/08/31 01:33:02;;;;;;;5.78;4.03;;;;;;;;;;517220;28;840;-74
2023/08/31 01:33:17;;;;;;;6.65;4.03;;;;;;;;;;513943;28;1907;-75
2023/08/31 01:33:32;;;;;;;6.13;4.00;;;;;;;;;;522055;28;1306;-75
2023/08/31 01:33:48;;;;;;;5.53;4.00;;;;;;;;;;520187;28;1297;-74
2023/08/31 01:34:03;;;;;;;6.00;3.83;;;;;;;;;;520180;28;1216;-74
2023/08/31 01:34:18;;;;;;;6.03;4.00;;;;;;;;;;520043;28;1322;-74
2023/08/31 01:34:37;;;;;;;5.90;4.10;;;;;;;;;;520192;28;1204;-74
2023/08/31 01:34:52;;;;;;;5.55;3.83;;;;;;;;;;520281;28;883;-74
2023/08/31 01:35:08;;;;;;;5.40;3.87;;;;;;;;;;520275;28;927;-75
2023/08/31 01:35:24;;;;;;;6.93;3.97;;;;;;;;;;520895;28;935;-74
2023/08/31 01:35:53;;;;;;;6.40;3.83;;;;;;;;;;519251;28;835;-74
2023/08/31 01:36:18;;;;;;;4.78;3.72;;;;;;;;;;514020;28;884;-75
2023/08/31 01:36:36;;;;;;;7.50;4.00;;;;;;;;;;514119;28;939;-75
2023/08/31 01:36:58;;;;;;;5.45;4.07;;;;;;;;;;514097;28;773;-74
2023/08/31 01:37:20;;;;;;;5.22;3.92;;;;;;;;;;514048;28;738;-75
2023/08/31 01:37:47;;;;;;;4.88;4.05;;;;;;;;;;513802;28;1273;-74
2023/08/31 01:38:08;;;;;;;4.30;3.38;;;;;;;;;;513767;28;1194;-75
2023/08/31 01:38:28;;;;;;;3.72;3.30;;;;;;;;;;512259;28;1115;-75
2023/08/31 01:38:48;;;;;;;4.55;3.40;;;;;;;;;;513576;28;1162;-75
2023/08/31 01:39:10;;;;;;;4.18;3.58;;;;;;;;;;513813;28;987;-75
2023/08/31 01:39:40;;;;;;;6.32;4.47;;;;;;;;;;522150;28;942;-74
2023/08/31 01:40:15;;;;;;;5.93;3.97;;;;;;;;;;522352;28;1001;-74
2023/08/31 01:40:35;;;;;;;5.38;3.95;;;;;;;;;;522176;28;872;-75
2023/08/31 01:40:55;;;;;;;4.95;3.72;;;;;;;;;;520009;28;1144;-75
2023/08/31 01:41:16;;;;;;;5.10;3.88;;;;;;;;;;520148;28;908;-75
2023/08/31 01:41:35;;;;;;;6.18;4.05;;;;;;;;;;522258;28;1050;-75
2023/08/31 01:41:56;;;;;;;6.45;4.00;;;;;;;;;;522424;28;824;-75
2023/08/31 01:42:15;;;;;;;9.45;4.10;;;;;;;;;;522044;28;1463;-75
2023/08/31 01:42:31;;;;;;;6.75;4.05;;;;;;;;;;522123;28;923;-75
2023/08/31 01:42:48;;;;;;;5.88;4.05;;;;;;;;;;516241;28;970;-75
2023/08/31 01:43:05;;;;;;;5.32;4.00;;;;;;;;;;513920;28;848;-74
2023/08/31 01:43:22;;;;;;;4.82;3.95;;;;;;;;;;513922;28;856;-74
2023/08/31 01:43:41;;;;;;;5.07;3.92;;;;;;;;;;514113;28;954;-74
2023/08/31 01:43:57;;;;;;;5.20;3.97;;;;;;;;;;514048;28;1051;-74
2023/08/31 01:44:16;;;;;;;4.97;3.80;;;;;;;;;;514050;28;868;-74
2023/08/31 01:44:33;;;;;;;5.15;3.97;;;;;;;;;;513704;28;1245;-74
2023/08/31 01:44:50;;;;;;;5.97;4.30;;;;;;;;;;513927;28;1170;-74
2023/08/31 01:45:06;;;;;;;5.85;4.28;;;;;;;;;;513313;28;1185;-75
2023/08/31 01:45:23;;;;;;;4.70;4.10;;;;;;;;;;512879;28;984;-74
2023/08/31 01:45:40;;;;;;;4.78;3.80;;;;;;;;;;513527;28;1237;-74
2023/08/31 01:45:55;;;;;;;6.07;4.10;;;;;;;;;;514092;28;832;-74
2023/08/31 01:46:11;;;;;;;5.83;4.13;;;;;;;;;;514125;28;911;-74
2023/08/31 01:46:26;;;;;;;5.00;3.90;;;;;;;;;;513963;28;943;-74
2023/08/31 01:46:45;;;;;;;5.13;3.75;;;;;;;;;;514167;28;887;-74
2023/08/31 01:47:08;;;;;;;4.78;3.60;;;;;;;;;;514010;28;1026;-75
2023/08/31 01:47:24;;;;;;;5.85;3.97;;;;;;;;;;522159;28;1296;-74
2023/08/31 01:47:40;;;;;;;5.03;3.90;;;;;;;;;;522186;28;817;-74
2023/08/31 01:47:55;;;;;;;7.75;3.90;;;;;;;;;;521980;28;1424;-74
2023/08/31 01:48:13;;;;;;;8.65;4.10;;;;;;;;;;522397;28;945;-74
2023/08/31 01:48:28;;;;;;;5.70;4.28;;;;;;;;;;522248;28;797;-74
2023/08/31 01:48:43;;;;;;;4.70;4.20;;;;;;;;;;522241;28;1255;-74
2023/08/31 01:48:59;;;;;;;4.20;3.80;;;;;;;;;;522025;28;1050;-74
2023/08/31 01:49:14;;;;;;;4.50;3.83;;;;;;;;;;519607;28;864;-74
2023/08/31 01:49:38;;;;;;;4.97;3.93;;;;;;;;;;514012;28;821;-74
2023/08/31 01:49:53;;;;;;;5.05;3.95;;;;;;;;;;521729;28;1368;-74
2023/08/31 01:50:09;;;;;;;6.07;4.27;;;;;;;;;;514235;28;1041;-74
2023/08/31 01:50:24;;;;;;;6.38;4.15;;;;;;;;;;513794;28;1544;-74
2023/08/31 01:50:39;;;;;;;5.27;3.93;;;;;;;;;;512229;28;1218;-74
2023/08/31 01:50:55;;;;;;;4.07;3.70;;;;;;;;;;513769;28;1165;-74
2023/08/31 01:51:10;;;;;;;4.30;3.60;;;;;;;;;;520469;28;1429;-75
2023/08/31 01:51:26;;;;;;;6.43;4.17;;;;;;;;;;517082;28;1245;-74
2023/08/31 01:51:42;;;;;;;6.47;4.38;;;;;;;;;;516256;28;1233;-74
2023/08/31 01:51:57;;;;;;;5.45;4.30;;;;;;;;;;521327;28;1126;-74
2023/08/31 01:52:12;;;;;;;4.80;4.20;;;;;;;;;;519708;28;1204;-74
2023/08/31 01:52:27;;;;;;;4.80;3.87;;;;;;;;;;517641;28;1418;-75
2023/08/31 01:52:43;;;;;;;4.93;3.78;;;;;;;;;;517986;28;1281;-74
2023/08/31 01:52:58;;;;;;;5.37;4.00;;;;;;;;;;516647;28;2265;-74
2023/08/31 01:53:13;;;;;;;6.23;3.97;;;;;;;;;;517430;28;1019;-74